Vernon, Texas
Current Conditions -  °F | °C
As of 3:15 AM on Sunday 21 Dec 2014 (Local Time) from KF05 Reporting Station
Overcast Overcast  
Wind Chill: 40°   Ceiling: 4200
Heat Index: 44°   Visibility: 10mi
Dew Point: 39°   Wind: 7mph
Humidity: 81%   Direction: 150°SSE
Pressure: 30.06"   Gusts: NA
Location:  34.15°N, 99.28°W
Report Text: KF05 210915Z AUTO 15006KT 10SM OVC042 07/04 A3006 RMK AO1 T00680038
Loading
Personal Weather Stations






























Interactive Weather Map New forecast layout! Learn more

10-Day Weather Forecast

Advertisements
Track Severe Weather on mobile